createdAt,value
2018-12-14T06:27:08.406Z,25.70
2018-12-14T06:29:36.607Z,26.87
2018-12-14T06:32:04.792Z,26.77
2018-12-14T06:34:32.944Z,27.57
2018-12-14T06:37:01.316Z,25.70
2018-12-14T06:39:29.569Z,27.73
2018-12-14T06:41:58.027Z,26.23
2018-12-14T06:44:26.198Z,26.87
2018-12-14T06:46:54.331Z,28.17
2018-12-14T06:49:22.613Z,25.97
2018-12-14T06:51:50.868Z,26.30
2018-12-14T06:54:19.009Z,26.00
2018-12-14T06:56:47.231Z,25.90
2018-12-14T06:59:15.379Z,25.27
2018-12-14T07:01:43.591Z,27.07
2018-12-14T07:04:11.848Z,26.30
2018-12-14T07:06:40.079Z,27.33
2018-12-14T07:09:08.231Z,27.10
2018-12-14T07:11:36.452Z,26.77
2018-12-14T07:14:04.608Z,27.17
2018-12-14T07:16:32.912Z,26.10
2018-12-14T07:19:01.143Z,26.50
2018-12-14T07:21:29.283Z,26.43
2018-12-14T07:23:57.451Z,26.23
2018-12-14T07:26:25.887Z,26.80
2018-12-14T07:28:54.201Z,27.63
2018-12-14T07:31:22.712Z,27.07
2018-12-14T07:33:50.889Z,26.40
2018-12-14T07:36:19.053Z,26.63
2018-12-14T07:38:48.270Z,26.53
2018-12-14T07:41:16.657Z,23.00
2018-12-14T07:43:44.787Z,25.77
2018-12-14T07:46:13.099Z,24.90
2018-12-14T07:48:41.240Z,24.67
2018-12-14T07:51:09.464Z,25.73
2018-12-14T07:53:37.670Z,26.83
2018-12-14T07:56:05.839Z,25.87
2018-12-14T07:58:34.040Z,24.73
2018-12-14T08:01:02.166Z,26.40
2018-12-14T08:03:30.318Z,25.30
2018-12-14T08:05:58.556Z,25.00
2018-12-14T08:08:26.712Z,25.33
2018-12-14T08:10:54.999Z,23.97
2018-12-14T08:13:23.294Z,24.87
2018-12-14T08:15:51.443Z,26.23
2018-12-14T08:18:19.705Z,21.77
2018-12-14T08:20:47.900Z,24.60
2018-12-14T08:23:16.087Z,25.67
2018-12-14T08:25:44.212Z,24.83
2018-12-14T08:28:12.352Z,25.37
2018-12-14T08:30:40.496Z,25.97
2018-12-14T08:33:08.693Z,25.40
2018-12-14T08:35:36.923Z,27.00
2018-12-14T08:38:05.131Z,23.27
2018-12-14T08:40:33.334Z,26.43
2018-12-14T08:43:01.595Z,25.67
2018-12-14T08:45:29.748Z,26.23
2018-12-14T08:47:58.031Z,26.90
2018-12-14T08:50:26.196Z,25.10
2018-12-14T08:52:54.379Z,21.97
2018-12-14T08:55:22.646Z,25.80
2018-12-14T08:57:50.867Z,23.47
2018-12-14T09:00:19.171Z,25.00
2018-12-14T09:02:47.372Z,24.53
2018-12-14T09:05:15.503Z,22.63
2018-12-14T09:07:43.717Z,25.00
2018-12-14T09:10:11.976Z,25.83
2018-12-14T09:12:40.119Z,23.33
2018-12-14T09:15:08.376Z,30.10
2018-12-14T09:17:36.571Z,25.63
2018-12-14T09:20:04.936Z,24.30
2018-12-14T09:22:33.076Z,24.70
2018-12-14T09:25:01.274Z,22.17
2018-12-14T09:27:29.491Z,20.67
2018-12-14T09:29:57.656Z,23.33
2018-12-14T09:32:26.027Z,21.07
2018-12-14T09:34:54.298Z,24.27
2018-12-14T09:37:22.515Z,20.37
2018-12-14T09:39:50.654Z,23.47
2018-12-14T09:42:18.849Z,20.37
2018-12-14T09:44:47.005Z,23.07
2018-12-14T09:47:15.169Z,22.77
2018-12-14T09:49:43.312Z,24.60
2018-12-14T09:52:11.509Z,23.37
2018-12-14T09:54:39.671Z,20.53
2018-12-14T09:57:07.871Z,22.57
2018-12-14T09:59:36.055Z,19.90
2018-12-14T10:02:04.348Z,22.67
2018-12-14T10:04:32.535Z,19.97
2018-12-14T10:07:00.735Z,21.50
2018-12-14T10:09:28.931Z,18.60
2018-12-14T10:11:57.204Z,21.30
2018-12-14T10:14:25.335Z,18.87
2018-12-14T10:16:53.664Z,22.10
2018-12-14T10:19:21.940Z,19.80
2018-12-14T10:21:50.245Z,21.73
2018-12-14T10:24:18.469Z,20.53
2018-12-14T10:26:46.670Z,25.93
2018-12-14T10:29:15.026Z,18.87
2018-12-14T10:31:43.163Z,20.47
2018-12-14T10:34:11.314Z,18.23
2018-12-14T10:36:39.499Z,17.93
2018-12-14T10:39:07.775Z,20.23
2018-12-14T10:41:35.971Z,18.63
2018-12-14T10:44:07.378Z,16.97
2018-12-14T10:46:34.492Z,20.40
2018-12-14T10:49:02.810Z,19.20
2018-12-14T10:51:31.311Z,19.90
2018-12-14T10:53:59.507Z,17.77
2018-12-14T10:56:27.796Z,20.53
2018-12-14T10:58:55.955Z,18.53
2018-12-14T11:01:29.531Z,18.53
2018-12-14T11:03:57.731Z,18.47
2018-12-14T11:06:25.981Z,18.33
2018-12-14T11:08:54.120Z,18.07
2018-12-14T11:11:22.421Z,21.37
2018-12-14T11:13:50.615Z,19.07
2018-12-14T11:16:18.773Z,20.93
2018-12-14T11:18:46.906Z,19.03
2018-12-14T11:21:15.191Z,21.40
2018-12-14T11:23:43.322Z,19.13
2018-12-14T11:26:11.462Z,22.23
2018-12-14T11:28:39.591Z,18.30
2018-12-14T11:31:07.727Z,22.07
2018-12-14T11:33:35.872Z,18.17
2018-12-14T11:36:04.056Z,18.80
2018-12-14T11:38:32.239Z,21.03
2018-12-14T11:41:00.483Z,19.40
2018-12-14T11:43:28.691Z,18.20
2018-12-14T11:45:57.455Z,18.77
2018-12-14T11:48:25.615Z,18.67
2018-12-14T11:50:53.807Z,18.03
2018-12-14T11:53:22.051Z,15.80
2018-12-14T11:55:50.304Z,17.30
2018-12-14T11:58:18.531Z,15.93
2018-12-14T12:00:46.884Z,15.17
2018-12-14T12:03:15.028Z,18.23
2018-12-14T12:05:43.242Z,15.17
2018-12-14T12:08:13.221Z,15.70
2018-12-14T12:10:41.548Z,16.30
2018-12-14T12:13:09.678Z,19.10
2018-12-14T12:15:37.963Z,18.10
2018-12-14T12:18:06.099Z,18.30
2018-12-14T12:20:34.323Z,17.50
2018-12-14T12:23:02.452Z,18.10
2018-12-14T12:25:30.619Z,20.60
2018-12-14T12:27:58.875Z,17.63
2018-12-14T12:30:27.159Z,17.87
2018-12-14T12:32:55.335Z,19.97
2018-12-14T12:35:23.540Z,17.33
2018-12-14T12:37:51.747Z,20.20
2018-12-14T12:40:19.979Z,16.97
2018-12-14T12:42:48.151Z,17.00
2018-12-14T12:45:16.412Z,17.00
2018-12-14T12:47:44.539Z,21.23
2018-12-14T12:50:12.879Z,17.23
2018-12-14T12:52:41.076Z,17.10
2018-12-14T12:55:09.235Z,16.63
2018-12-14T12:57:37.443Z,18.07
2018-12-14T13:00:06.251Z,16.20
2018-12-14T13:02:34.392Z,18.63
2018-12-14T13:05:02.619Z,17.10
2018-12-14T13:07:30.771Z,19.43
2018-12-14T13:09:58.965Z,17.70
2018-12-14T13:12:27.317Z,20.03
2018-12-14T13:14:55.523Z,17.00
2018-12-14T13:17:23.663Z,19.93
2018-12-14T13:19:51.788Z,16.03
2018-12-14T13:22:20.027Z,18.93
2018-12-14T13:24:48.224Z,16.70
2018-12-14T13:27:20.296Z,17.03
2018-12-14T13:29:46.655Z,16.53
2018-12-14T13:32:14.935Z,18.53
2018-12-14T13:34:43.070Z,16.10
2018-12-14T13:37:11.196Z,18.17
2018-12-14T13:39:39.407Z,16.77
2018-12-14T13:42:07.546Z,18.97
2018-12-14T13:44:35.938Z,17.07
2018-12-14T13:47:04.301Z,18.97
2018-12-14T13:49:32.455Z,17.90
2018-12-14T13:52:00.652Z,19.50
2018-12-14T13:54:28.815Z,17.63
2018-12-14T13:56:57.051Z,19.17
2018-12-14T13:59:25.240Z,20.37
2018-12-14T14:01:53.366Z,20.20
2018-12-14T14:04:21.540Z,19.93
2018-12-14T14:06:49.746Z,18.67
2018-12-14T14:09:17.889Z,20.67
2018-12-14T14:11:46.108Z,20.67
2018-12-14T14:14:14.251Z,21.73
2018-12-14T14:16:42.468Z,20.03
2018-12-14T14:19:10.631Z,17.83
2018-12-14T14:21:38.852Z,19.70
2018-12-14T14:24:07.084Z,17.50
2018-12-14T14:26:35.243Z,20.83
2018-12-14T14:29:03.437Z,17.47
2018-12-14T14:31:31.571Z,20.07
2018-12-14T14:33:59.838Z,20.43
2018-12-14T14:36:27.980Z,19.67
2018-12-14T14:38:56.258Z,19.17
2018-12-14T14:41:24.491Z,20.23
2018-12-14T14:43:52.690Z,18.10
2018-12-14T14:46:20.931Z,19.40
2018-12-14T14:48:49.209Z,20.27
2018-12-14T14:51:17.662Z,20.07
2018-12-14T14:53:45.819Z,20.00
2018-12-14T14:56:13.979Z,18.20
2018-12-14T14:58:42.164Z,19.67
2018-12-14T15:01:10.367Z,16.27
2018-12-14T15:03:38.620Z,19.40
2018-12-14T15:06:06.779Z,17.57
2018-12-14T15:08:35.047Z,18.20
2018-12-14T15:11:03.276Z,16.97
2018-12-14T15:13:31.490Z,18.93
2018-12-14T15:15:59.751Z,20.23
2018-12-14T15:18:27.911Z,19.37
2018-12-14T15:20:56.055Z,18.53
2018-12-14T15:23:24.398Z,19.63
2018-12-14T15:25:52.632Z,21.35
2018-12-14T15:28:20.835Z,21.13
2018-12-14T15:30:49.032Z,20.97
2018-12-14T15:33:17.195Z,22.70
2018-12-14T15:35:45.492Z,20.17
2018-12-14T15:38:13.759Z,25.07
2018-12-14T15:40:41.985Z,22.53
2018-12-14T15:43:10.183Z,25.90
2018-12-14T15:45:38.481Z,23.80
2018-12-14T15:48:06.961Z,23.70
2018-12-14T15:50:35.233Z,22.50
2018-12-14T15:53:03.360Z,26.03
2018-12-14T15:55:31.596Z,24.87
2018-12-14T15:57:59.813Z,24.93
2018-12-14T16:00:28.073Z,21.93
2018-12-14T16:02:56.431Z,23.57
2018-12-14T16:05:24.620Z,23.97
2018-12-14T16:07:52.747Z,25.60
2018-12-14T16:10:20.998Z,23.07
2018-12-14T16:12:49.752Z,24.50
2018-12-14T16:15:20.406Z,26.07
2018-12-14T16:17:48.195Z,22.97
2018-12-14T16:20:16.387Z,25.77
2018-12-14T16:22:44.752Z,26.33
2018-12-14T16:25:13.063Z,25.07
2018-12-14T16:27:41.417Z,25.63
2018-12-14T16:30:10.633Z,26.60
2018-12-14T16:32:38.803Z,26.73
2018-12-14T16:35:07.175Z,26.67
2018-12-14T16:37:35.447Z,24.97
2018-12-14T16:40:04.175Z,26.17
2018-12-14T16:42:32.540Z,27.03
2018-12-14T16:45:00.671Z,26.70
2018-12-14T16:47:29.031Z,29.03
2018-12-14T16:49:57.215Z,27.63
2018-12-14T16:52:25.443Z,31.03
2018-12-14T16:54:53.691Z,27.27
2018-12-14T16:57:21.923Z,23.73
2018-12-14T16:59:50.236Z,27.37
2018-12-14T17:02:18.629Z,27.73
2018-12-14T17:04:46.781Z,24.10
2018-12-14T17:07:15.035Z,28.03
2018-12-14T17:09:43.480Z,26.13
2018-12-14T17:12:11.731Z,23.47
2018-12-14T17:14:39.956Z,28.07
2018-12-14T17:17:08.180Z,23.60
2018-12-14T17:19:36.436Z,28.73
2018-12-14T17:22:04.631Z,25.37
2018-12-14T17:24:32.841Z,25.57
2018-12-14T17:27:01.138Z,25.20
2018-12-14T17:29:29.316Z,26.33
2018-12-14T17:31:57.487Z,24.43
2018-12-14T17:34:25.762Z,26.93
2018-12-14T17:36:53.984Z,27.10
2018-12-14T17:39:22.467Z,28.23
2018-12-14T17:41:50.694Z,27.60
2018-12-14T17:44:18.915Z,27.73
2018-12-14T17:46:47.465Z,25.53
2018-12-14T17:49:15.695Z,28.97
2018-12-14T17:51:44.115Z,27.50
2018-12-14T17:54:12.363Z,29.00
2018-12-14T17:56:40.652Z,28.27
2018-12-14T17:59:08.836Z,25.17
2018-12-14T18:01:37.261Z,27.87
2018-12-14T18:04:05.535Z,28.23
2018-12-14T18:06:33.741Z,25.20
2018-12-14T18:09:01.956Z,27.97
2018-12-14T18:11:30.214Z,28.33
2018-12-14T18:13:58.402Z,27.60
2018-12-14T18:16:26.783Z,26.60
2018-12-14T18:18:55.003Z,27.30
2018-12-14T18:21:23.214Z,25.63
2018-12-14T18:23:51.406Z,27.77
2018-12-14T18:26:19.649Z,27.63
2018-12-14T18:28:47.847Z,28.07
2018-12-14T18:31:16.080Z,27.47
2018-12-14T18:33:44.319Z,22.97
2018-12-14T18:36:12.569Z,26.23
2018-12-14T18:38:40.775Z,27.07
2018-12-14T18:41:08.930Z,25.23
2018-12-14T18:43:37.118Z,27.50
2018-12-14T18:46:05.403Z,26.97
2018-12-14T18:48:33.568Z,27.47
2018-12-14T18:51:01.833Z,27.13
2018-12-14T18:53:29.998Z,26.33
2018-12-14T18:55:58.278Z,26.53
2018-12-14T18:58:26.476Z,26.30
2018-12-14T19:00:54.766Z,26.40
2018-12-14T19:03:23.004Z,26.27
2018-12-14T19:05:51.302Z,26.63
2018-12-14T19:08:19.527Z,26.47
2018-12-14T19:10:47.759Z,26.23
2018-12-14T19:13:15.947Z,25.20
2018-12-14T19:15:44.102Z,26.80
2018-12-14T19:18:12.347Z,24.73
2018-12-14T19:20:40.610Z,25.00
2018-12-14T19:23:08.842Z,24.50
2018-12-14T19:28:11.692Z,25.50
2018-12-14T19:30:39.854Z,25.77
2018-12-14T19:33:08.057Z,25.43
2018-12-14T19:35:36.405Z,23.97
2018-12-14T19:38:04.579Z,22.40
2018-12-14T19:40:32.759Z,24.27
2018-12-14T19:43:00.999Z,21.73
2018-12-14T19:45:29.207Z,22.70
2018-12-14T19:47:57.391Z,23.83
2018-12-14T19:50:25.588Z,25.27
2018-12-14T19:52:53.758Z,22.57
2018-12-14T19:55:22.127Z,22.67
2018-12-14T19:57:50.406Z,21.70
2018-12-14T20:00:18.727Z,21.77
2018-12-14T20:02:47.005Z,21.13
2018-12-14T20:05:15.243Z,22.07
2018-12-14T20:07:43.620Z,23.60
2018-12-14T20:10:11.967Z,22.57
2018-12-14T20:12:40.115Z,21.87
2018-12-14T20:15:08.396Z,22.20
2018-12-14T20:17:36.572Z,23.97
2018-12-14T20:20:05.452Z,22.67
2018-12-14T20:22:33.736Z,23.57
2018-12-14T20:25:01.973Z,20.40
2018-12-14T20:27:30.244Z,22.23
2018-12-14T20:29:58.558Z,22.60
2018-12-14T20:32:26.798Z,22.60
2018-12-14T20:34:55.215Z,22.73
2018-12-14T20:37:23.375Z,22.93
2018-12-14T20:39:51.619Z,21.43
2018-12-14T20:42:19.884Z,22.73
2018-12-14T20:44:48.214Z,20.50
2018-12-14T20:47:16.500Z,19.43
2018-12-14T20:49:44.747Z,22.33
2018-12-14T20:52:12.926Z,20.77
2018-12-14T20:54:41.163Z,22.10
2018-12-14T20:57:09.340Z,21.70
2018-12-14T20:59:37.511Z,18.67
2018-12-14T21:02:05.824Z,22.60
2018-12-14T21:04:34.096Z,21.83
2018-12-14T21:07:02.400Z,22.43
2018-12-14T21:09:30.673Z,22.93
2018-12-14T21:11:58.915Z,21.67
2018-12-14T21:14:27.404Z,22.47
2018-12-14T21:16:55.821Z,21.23
2018-12-14T21:19:24.208Z,23.57
2018-12-14T21:21:52.465Z,20.23
2018-12-14T21:24:20.801Z,26.90
2018-12-14T21:26:49.010Z,19.10
2018-12-14T21:29:17.176Z,21.97
2018-12-14T21:31:45.399Z,19.70
2018-12-14T21:34:13.628Z,21.77
2018-12-14T21:36:41.865Z,22.27
2018-12-14T21:39:10.075Z,22.00
2018-12-14T21:41:38.223Z,21.30
2018-12-14T21:44:06.425Z,21.57
2018-12-14T21:46:34.702Z,20.17
2018-12-14T21:49:02.905Z,19.93
2018-12-14T21:51:31.072Z,18.90
2018-12-14T21:53:59.228Z,18.77
2018-12-14T21:56:27.498Z,17.80
2018-12-14T21:58:55.760Z,18.73
